»·PEaware :: N143VT KMRY-KPSP

N143VT :: KMRY-KPSP

FLIGHT INFORMATION

Flight Status: Arrived
Operator: Privately registered:
United States
More flights under this callsign
Pilot: Anonymous 16492 (16492)
Aircraft: ECLIPSE 500
(EA50)
More flights by this aircraft type
Origin: KMRY Monterey Peninsula
United States
Destination: KPSP Palm Springs Intl
United States
More flights between these airports :: More routes between these airports
Route: MRY4 SNS V137 ROM LOSHN CLASN SIZLR3
File this flight plan on PilotEdge
Remarks:
Altitude:
(Current/Filed)
29,000ft
Speed:
(Current/Filed)
330kts
Departed: 11-Sep-18 06:04 PM
Arrived: 11-Sep-18 07:44 PM
Distance/Time
Traveled:
310nm/1:40
Distance/Time
To Go:
Arrived

Flight Plot

Page will automatically refresh every two minutes.

Flight plan parsing failed; only flown route is shown


Map Options




Map Legend


Flown Route
Filed Route
Departure Airport
Arrival Airport
Navaid (VOR, NDB)
Fix

Horizontal Profiles

Position Reports

Time Latitude Longitude Heading Altitude Ground
Speed
11-Sep-18 17:50 36.587710 -121.850309 234 258ft 0kts
11-Sep-18 17:51 36.587710 -121.850309 234 258ft 0kts
11-Sep-18 17:52 36.587710 -121.850309 234 258ft 0kts
11-Sep-18 17:53 36.587710 -121.850309 234 258ft 0kts
11-Sep-18 17:54 36.587710 -121.850309 234 258ft 0kts
11-Sep-18 17:55 36.587710 -121.850309 234 258ft 0kts
11-Sep-18 17:56 36.587710 -121.850309 234 258ft 0kts
11-Sep-18 17:57 36.587710 -121.850309 234 258ft 0kts
11-Sep-18 17:58 36.587710 -121.850309 234 258ft 0kts
11-Sep-18 17:59 36.587759 -121.850449 18 258ft 1kts
11-Sep-18 18:00 36.587589 -121.848631 112 258ft 12kts
11-Sep-18 18:01 36.585199 -121.841906 111 258ft 26kts
11-Sep-18 18:02 36.582825 -121.834746 97 258ft 0kts
11-Sep-18 18:03 36.582825 -121.834746 97 258ft 0kts
11-Sep-18 18:04 36.582901 -121.833734 50 258ft 8kts
11-Sep-18 18:05 36.583440 -121.833866 289 258ft 0kts
11-Sep-18 18:06 36.591427 -121.852388 297 759ft 109kts
11-Sep-18 18:07 36.624114 -121.872485 347 2380ft 175kts
11-Sep-18 18:08 36.674325 -121.879979 32 4799ft 201kts
11-Sep-18 18:09 36.677538 -121.816056 98 7313ft 197kts
11-Sep-18 18:10 36.671885 -121.747481 94 9464ft 203kts
11-Sep-18 18:11 36.667730 -121.676202 93 11438ft 211kts
11-Sep-18 18:12 36.661007 -121.602758 124 13257ft 217kts
11-Sep-18 18:13 36.627692 -121.539298 127 14976ft 224kts
11-Sep-18 18:14 36.592443 -121.474285 128 16587ft 231kts
11-Sep-18 18:15 36.555823 -121.407615 129 18093ft 237kts
11-Sep-18 18:27 36.584887 -121.844138 23 258ft 0kts
11-Sep-18 18:28 36.584887 -121.844138 23 258ft 0kts
11-Sep-18 18:29 36.584887 -121.844138 23 258ft 0kts
11-Sep-18 18:30 36.584887 -121.844138 23 258ft 0kts
11-Sep-18 18:31 36.584887 -121.844138 23 258ft 0kts
11-Sep-18 18:32 36.584887 -121.844138 23 258ft 0kts
11-Sep-18 18:33 36.584887 -121.844138 23 258ft 0kts
11-Sep-18 18:34 36.584887 -121.844138 23 258ft 0kts
11-Sep-18 18:35 36.585111 -121.843635 36 258ft 1kts
11-Sep-18 18:36 36.582962 -121.835497 101 258ft 32kts
11-Sep-18 18:37 36.588078 -121.847014 290 444ft 108kts
11-Sep-18 18:38 36.610882 -121.885645 341 2282ft 165kts
11-Sep-18 18:39 36.656624 -121.900791 341 4683ft 174kts
11-Sep-18 18:40 36.694470 -121.882363 97 6838ft 190kts
11-Sep-18 18:41 36.685891 -121.804266 98 9216ft 202kts
11-Sep-18 18:42 36.679481 -121.745702 98 10827ft 209kts
11-Sep-18 18:43 36.671536 -121.673027 98 12638ft 217kts
11-Sep-18 18:44 36.659266 -121.599054 126 14315ft 221kts
11-Sep-18 18:45 36.625085 -121.534375 128 15910ft 228kts
11-Sep-18 18:46 36.589167 -121.468276 129 17406ft 234kts
11-Sep-18 18:47 36.551832 -121.400374 129 18814ft 241kts
11-Sep-18 18:48 36.513798 -121.331575 131 20116ft 246kts
11-Sep-18 18:49 36.474482 -121.260730 131 21313ft 252kts
11-Sep-18 18:50 36.434460 -121.188805 131 22430ft 257kts
11-Sep-18 18:51 36.393475 -121.115397 131 23459ft 262kts
11-Sep-18 18:52 36.351504 -121.040317 130 24421ft 267kts
11-Sep-18 18:53 36.308911 -120.964269 130 25315ft 272kts
11-Sep-18 18:54 36.265477 -120.886803 130 26169ft 276kts
11-Sep-18 18:55 36.221497 -120.808603 131 26972ft 279kts
11-Sep-18 18:56 36.177016 -120.729708 131 27735ft 282kts
11-Sep-18 18:57 36.133778 -120.647657 124 28456ft 288kts
11-Sep-18 18:58 36.094707 -120.559824 124 28876ft 303kts
11-Sep-18 18:59 36.052888 -120.464923 123 28877ft 329kts
11-Sep-18 19:00 36.007909 -120.362689 123 28862ft 348kts
11-Sep-18 19:01 35.961552 -120.257550 123 28843ft 359kts
11-Sep-18 19:02 35.913329 -120.148520 123 28845ft 366kts
11-Sep-18 19:03 35.865137 -120.039913 123 28842ft 372kts
11-Sep-18 19:04 35.824581 -119.938662 119 28839ft 377kts
11-Sep-18 19:05 35.780463 -119.821433 118 28845ft 380kts
11-Sep-18 19:06 35.731532 -119.709530 130 28842ft 376kts
11-Sep-18 19:07 35.671900 -119.604736 129 28839ft 379kts
11-Sep-18 19:08 35.612371 -119.498320 129 28840ft 380kts
11-Sep-18 19:09 35.553288 -119.392596 129 28841ft 381kts
11-Sep-18 19:10 35.497157 -119.292316 130 28836ft 381kts
11-Sep-18 19:11 35.438142 -119.187271 130 28842ft 380kts
11-Sep-18 19:12 35.378559 -119.081517 130 28843ft 380kts
11-Sep-18 19:13 35.318712 -118.975637 130 28844ft 380kts
11-Sep-18 19:14 35.258595 -118.869581 129 28845ft 379kts
11-Sep-18 19:15 35.201928 -118.769867 129 28858ft 377kts
11-Sep-18 19:16 35.142619 -118.665775 129 28970ft 373kts
11-Sep-18 19:17 35.083487 -118.562344 129 29034ft 372kts
11-Sep-18 19:18 35.024281 -118.459125 129 29037ft 373kts
11-Sep-18 19:19 34.964804 -118.355765 128 28997ft 374kts
11-Sep-18 19:20 34.906386 -118.254497 128 28930ft 373kts
11-Sep-18 19:21 34.848299 -118.154050 128 28455ft 377kts
11-Sep-18 19:22 34.796983 -118.065483 128 27265ft 350kts
11-Sep-18 19:23 34.740968 -117.969178 128 26040ft 355kts
11-Sep-18 19:24 34.691998 -117.885170 128 24959ft 349kts
11-Sep-18 19:25 34.638198 -117.793105 127 23754ft 343kts
11-Sep-18 19:26 34.584033 -117.700656 127 22520ft 335kts
11-Sep-18 19:27 34.531248 -117.610791 127 21292ft 327kts
11-Sep-18 19:28 34.478951 -117.521982 127 20085ft 321kts
11-Sep-18 19:29 34.427512 -117.434841 127 19099ft 316kts
11-Sep-18 19:30 34.376977 -117.349435 127 18352ft 313kts
11-Sep-18 19:31 34.326389 -117.264149 127 17594ft 312kts
11-Sep-18 19:32 34.276096 -117.179560 127 16841ft 310kts
11-Sep-18 19:33 34.226581 -117.096468 127 16096ft 306kts
11-Sep-18 19:34 34.177389 -117.014110 127 15345ft 299kts
11-Sep-18 19:35 34.129290 -116.933779 127 14595ft 292kts
11-Sep-18 19:36 34.082394 -116.855620 126 14121ft 288kts
11-Sep-18 19:37 34.036058 -116.776719 114 13903ft 295kts
11-Sep-18 19:38 34.010316 -116.685442 108 12410ft 283kts
11-Sep-18 19:39 33.971297 -116.606198 131 10624ft 272kts
11-Sep-18 19:40 33.926599 -116.542760 131 8614ft 230kts
11-Sep-18 19:41 33.886946 -116.486609 131 6533ft 222kts
11-Sep-18 19:42 33.846425 -116.432080 135 4134ft 224kts
11-Sep-18 19:43 33.803728 -116.434486 227 3661ft 142kts
11-Sep-18 19:44 33.789642 -116.470325 317 2340ft 127kts
11-Sep-18 19:45 33.814882 -116.494374 322 725ft 100kts
11-Sep-18 19:46 33.827576 -116.507199 179 480ft 15kts
11-Sep-18 19:47 33.827340 -116.507201 180 478ft 0kts
11-Sep-18 19:48 33.827340 -116.507201 180 478ft 0kts
11-Sep-18 19:49 33.827340 -116.507201 180 478ft 0kts

Navigation Log

Ident Type
Flight plan parsing failed, navigation log unavailable